sensor_id;sensor_type;location;lat;lon;timestamp;pressure;altitude;pressure_sealevel;temperature;humidity
51999;BME280;38015;50.924;11.598;2023-02-12T00:01:16;101351.22;;;21.56;24.43
51999;BME280;38015;50.924;11.598;2023-02-12T00:03:46;101354.58;;;21.61;24.33
51999;BME280;38015;50.924;11.598;2023-02-12T00:06:16;101358.02;;;21.68;24.25
51999;BME280;38015;50.924;11.598;2023-02-12T00:08:49;101363.94;;;21.71;24.18
51999;BME280;38015;50.924;11.598;2023-02-12T00:11:20;101360.20;;;21.53;24.46
51999;BME280;38015;50.924;11.598;2023-02-12T00:13:48;101357.85;;;21.45;24.62
51999;BME280;38015;50.924;11.598;2023-02-12T00:16:20;101356.77;;;21.47;24.60
51999;BME280;38015;50.924;11.598;2023-02-12T00:18:50;101356.81;;;21.55;24.48
51999;BME280;38015;50.924;11.598;2023-02-12T00:21:20;101358.39;;;21.49;24.55
51999;BME280;38015;50.924;11.598;2023-02-12T00:23:50;101354.67;;;21.59;24.40
51999;BME280;38015;50.924;11.598;2023-02-12T00:26:21;101353.53;;;21.51;24.46
51999;BME280;38015;50.924;11.598;2023-02-12T00:28:51;101351.15;;;21.46;24.54
51999;BME280;38015;50.924;11.598;2023-02-12T00:31:23;101353.09;;;21.54;24.49
51999;BME280;38015;50.924;11.598;2023-02-12T00:33:52;101359.65;;;21.61;24.39
51999;BME280;38015;50.924;11.598;2023-02-12T00:36:24;101358.61;;;21.60;24.41
51999;BME280;38015;50.924;11.598;2023-02-12T00:38:55;101356.44;;;21.48;24.58
51999;BME280;38015;50.924;11.598;2023-02-12T00:41:24;101362.60;;;21.67;24.32
51999;BME280;38015;50.924;11.598;2023-02-12T00:43:54;101368.74;;;21.62;24.41
51999;BME280;38015;50.924;11.598;2023-02-12T00:46:24;101371.62;;;21.63;24.39
51999;BME280;38015;50.924;11.598;2023-02-12T00:48:55;101374.31;;;21.51;24.55
51999;BME280;38015;50.924;11.598;2023-02-12T00:51:26;101379.22;;;21.39;24.73
51999;BME280;38015;50.924;11.598;2023-02-12T00:53:56;101377.79;;;21.32;24.91
51999;BME280;38015;50.924;11.598;2023-02-12T00:56:27;101374.01;;;21.36;24.83
51999;BME280;38015;50.924;11.598;2023-02-12T00:58:57;101374.16;;;21.06;25.30
51999;BME280;38015;50.924;11.598;2023-02-12T01:01:28;101372.32;;;21.12;25.24
51999;BME280;38015;50.924;11.598;2023-02-12T01:03:59;101376.09;;;20.89;25.62
51999;BME280;38015;50.924;11.598;2023-02-12T01:06:31;101375.90;;;21.20;25.09
51999;BME280;38015;50.924;11.598;2023-02-12T01:08:59;101373.27;;;21.35;24.87
51999;BME280;38015;50.924;11.598;2023-02-12T01:11:30;101374.21;;;21.33;24.92
51999;BME280;38015;50.924;11.598;2023-02-12T01:14:00;101372.48;;;21.32;24.92
51999;BME280;38015;50.924;11.598;2023-02-12T01:16:31;101369.87;;;21.40;24.75
51999;BME280;38015;50.924;11.598;2023-02-12T01:19:02;101372.10;;;21.42;24.76
51999;BME280;38015;50.924;11.598;2023-02-12T01:21:33;101375.12;;;21.38;24.82
51999;BME280;38015;50.924;11.598;2023-02-12T01:24:03;101377.51;;;21.50;24.61
51999;BME280;38015;50.924;11.598;2023-02-12T01:26:33;101379.17;;;21.20;25.17
51999;BME280;38015;50.924;11.598;2023-02-12T01:29:05;101380.58;;;21.08;25.29
51999;BME280;38015;50.924;11.598;2023-02-12T01:31:37;101380.58;;;21.53;24.54
51999;BME280;38015;50.924;11.598;2023-02-12T01:34:06;101379.99;;;21.36;24.83
51999;BME280;38015;50.924;11.598;2023-02-12T01:36:35;101381.95;;;21.34;24.88
51999;BME280;38015;50.924;11.598;2023-02-12T01:39:05;101380.83;;;21.13;25.24
51999;BME280;38015;50.924;11.598;2023-02-12T01:41:42;101380.21;;;21.39;24.87
51999;BME280;38015;50.924;11.598;2023-02-12T01:44:09;101379.68;;;21.40;24.83
51999;BME280;38015;50.924;11.598;2023-02-12T01:46:38;101378.08;;;21.28;25.05
51999;BME280;38015;50.924;11.598;2023-02-12T01:49:13;101379.15;;;21.36;24.95
51999;BME280;38015;50.924;11.598;2023-02-12T01:51:39;101377.97;;;21.47;24.76
51999;BME280;38015;50.924;11.598;2023-02-12T01:54:12;101381.35;;;21.35;24.93
51999;BME280;38015;50.924;11.598;2023-02-12T01:56:39;101378.95;;;21.48;24.71
51999;BME280;38015;50.924;11.598;2023-02-12T01:59:10;101378.33;;;21.40;24.87
51999;BME280;38015;50.924;11.598;2023-02-12T02:01:40;101378.64;;;21.60;24.56
51999;BME280;38015;50.924;11.598;2023-02-12T02:04:13;101374.82;;;21.67;24.45
51999;BME280;38015;50.924;11.598;2023-02-12T02:06:48;101369.48;;;21.78;24.24
51999;BME280;38015;50.924;11.598;2023-02-12T02:09:12;101370.22;;;21.46;24.77
51999;BME280;38015;50.924;11.598;2023-02-12T02:11:43;101373.24;;;21.51;24.72
51999;BME280;38015;50.924;11.598;2023-02-12T02:14:13;101374.94;;;21.43;24.86
51999;BME280;38015;50.924;11.598;2023-02-12T02:16:49;101378.03;;;21.45;24.79
51999;BME280;38015;50.924;11.598;2023-02-12T02:19:23;101376.07;;;21.31;25.01
51999;BME280;38015;50.924;11.598;2023-02-12T02:31:51;101367.14;;;21.27;25.11
51999;BME280;38015;50.924;11.598;2023-02-12T02:34:23;101364.45;;;21.54;24.67
51999;BME280;38015;50.924;11.598;2023-02-12T02:36:52;101362.43;;;21.40;24.93
51999;BME280;38015;50.924;11.598;2023-02-12T02:39:25;101359.48;;;21.45;24.84
51999;BME280;38015;50.924;11.598;2023-02-12T02:41:56;101356.78;;;21.46;24.76
51999;BME280;38015;50.924;11.598;2023-02-12T02:44:24;101356.35;;;21.48;24.75
51999;BME280;38015;50.924;11.598;2023-02-12T02:46:51;101354.71;;;21.56;24.66
51999;BME280;38015;50.924;11.598;2023-02-12T02:49:26;101355.32;;;21.33;25.07
51999;BME280;38015;50.924;11.598;2023-02-12T02:51:55;101353.80;;;21.20;25.26
51999;BME280;38015;50.924;11.598;2023-02-12T02:54:26;101352.21;;;21.16;25.35
51999;BME280;38015;50.924;11.598;2023-02-12T02:56:54;101356.98;;;21.34;25.12
51999;BME280;38015;50.924;11.598;2023-02-12T02:59:27;101353.49;;;21.23;25.26
51999;BME280;38015;50.924;11.598;2023-02-12T03:01:56;101348.34;;;21.27;25.19
51999;BME280;38015;50.924;11.598;2023-02-12T03:04:26;101348.75;;;21.39;25.03
51999;BME280;38015;50.924;11.598;2023-02-12T03:06:59;101349.71;;;21.40;25.03
51999;BME280;38015;50.924;11.598;2023-02-12T03:09:29;101353.78;;;21.13;25.45
51999;BME280;38015;50.924;11.598;2023-02-12T03:11:57;101353.93;;;21.28;25.25
51999;BME280;38015;50.924;11.598;2023-02-12T03:14:29;101359.41;;;21.26;25.28
51999;BME280;38015;50.924;11.598;2023-02-12T03:16:58;101361.30;;;21.32;25.22
51999;BME280;38015;50.924;11.598;2023-02-12T03:19:30;101359.91;;;21.15;25.45
51999;BME280;38015;50.924;11.598;2023-02-12T03:22:01;101365.00;;;21.35;25.17
51999;BME280;38015;50.924;11.598;2023-02-12T03:24:32;101366.33;;;21.28;25.28
51999;BME280;38015;50.924;11.598;2023-02-12T03:27:03;101371.58;;;21.43;25.06
51999;BME280;38015;50.924;11.598;2023-02-12T03:29:28;101378.80;;;21.43;25.05
51999;BME280;38015;50.924;11.598;2023-02-12T03:32:09;101379.93;;;21.09;25.57
51999;BME280;38015;50.924;11.598;2023-02-12T03:34:34;101383.13;;;21.15;25.51
51999;BME280;38015;50.924;11.598;2023-02-12T03:37:03;101384.82;;;21.35;25.24
51999;BME280;38015;50.924;11.598;2023-02-12T03:39:37;101384.74;;;21.13;25.58
51999;BME280;38015;50.924;11.598;2023-02-12T03:42:04;101384.24;;;21.35;25.20
51999;BME280;38015;50.924;11.598;2023-02-12T03:44:45;101387.71;;;21.41;25.10
51999;BME280;38015;50.924;11.598;2023-02-12T03:47:08;101387.56;;;21.34;25.26
51999;BME280;38015;50.924;11.598;2023-02-12T03:49:38;101385.25;;;21.63;24.76
51999;BME280;38015;50.924;11.598;2023-02-12T03:52:03;101387.56;;;21.60;24.81
51999;BME280;38015;50.924;11.598;2023-02-12T03:54:34;101391.14;;;21.33;25.22
51999;BME280;38015;50.924;11.598;2023-02-12T03:57:08;101395.02;;;21.54;24.90
51999;BME280;38015;50.924;11.598;2023-02-12T03:59:35;101395.52;;;21.52;24.94
51999;BME280;38015;50.924;11.598;2023-02-12T04:02:05;101402.22;;;21.58;24.86
51999;BME280;38015;50.924;11.598;2023-02-12T04:04:35;101408.33;;;21.49;25.01
51999;BME280;38015;50.924;11.598;2023-02-12T04:07:06;101412.60;;;21.46;25.05
51999;BME280;38015;50.924;11.598;2023-02-12T04:09:36;101417.58;;;21.60;24.87
51999;BME280;38015;50.924;11.598;2023-02-12T04:14:45;101420.26;;;21.42;25.12
51999;BME280;38015;50.924;11.598;2023-02-12T04:17:14;101422.76;;;21.42;25.16
51999;BME280;38015;50.924;11.598;2023-02-12T04:19:47;101425.24;;;21.62;24.83
51999;BME280;38015;50.924;11.598;2023-02-12T04:22:28;101431.43;;;21.18;25.50
51999;BME280;38015;50.924;11.598;2023-02-12T04:24:49;101434.00;;;21.37;25.19
51999;BME280;38015;50.924;11.598;2023-02-12T04:27:16;101435.26;;;21.70;24.71
51999;BME280;38015;50.924;11.598;2023-02-12T04:29:46;101430.37;;;21.46;25.11
51999;BME280;38015;50.924;11.598;2023-02-12T04:32:15;101431.39;;;21.71;24.70
51999;BME280;38015;50.924;11.598;2023-02-12T04:34:49;101431.57;;;21.62;24.85
51999;BME280;38015;50.924;11.598;2023-02-12T04:37:17;101429.74;;;21.47;25.06
51999;BME280;38015;50.924;11.598;2023-02-12T04:39:43;101435.70;;;21.40;25.19
51999;BME280;38015;50.924;11.598;2023-02-12T04:42:12;101436.39;;;21.30;25.35
51999;BME280;38015;50.924;11.598;2023-02-12T04:44:44;101438.93;;;21.31;25.36
51999;BME280;38015;50.924;11.598;2023-02-12T04:47:15;101439.68;;;21.39;25.24
51999;BME280;38015;50.924;11.598;2023-02-12T04:49:44;101438.08;;;21.46;25.12
51999;BME280;38015;50.924;11.598;2023-02-12T04:52:14;101440.04;;;21.45;25.16
51999;BME280;38015;50.924;11.598;2023-02-12T04:54:45;101439.08;;;21.60;24.93
51999;BME280;38015;50.924;11.598;2023-02-12T04:57:16;101440.68;;;21.57;24.98
51999;BME280;38015;50.924;11.598;2023-02-12T04:59:46;101440.48;;;21.63;24.90
51999;BME280;38015;50.924;11.598;2023-02-12T05:02:17;101442.96;;;21.32;25.38
51999;BME280;38015;50.924;11.598;2023-02-12T05:04:48;101440.30;;;21.48;25.15
51999;BME280;38015;50.924;11.598;2023-02-12T05:07:17;101441.86;;;21.73;24.76
51999;BME280;38015;50.924;11.598;2023-02-12T05:09:48;101443.69;;;21.76;24.73
51999;BME280;38015;50.924;11.598;2023-02-12T05:12:18;101444.91;;;21.73;24.76
51999;BME280;38015;50.924;11.598;2023-02-12T05:14:49;101445.73;;;21.79;24.67
51999;BME280;38015;50.924;11.598;2023-02-12T05:17:20;101444.06;;;21.73;24.76
51999;BME280;38015;50.924;11.598;2023-02-12T05:19:50;101441.77;;;21.71;24.78
51999;BME280;38015;50.924;11.598;2023-02-12T05:22:21;101442.28;;;21.76;24.73
51999;BME280;38015;50.924;11.598;2023-02-12T05:24:51;101445.25;;;21.85;24.59
51999;BME280;38015;50.924;11.598;2023-02-12T05:27:21;101443.32;;;21.79;24.71
51999;BME280;38015;50.924;11.598;2023-02-12T05:29:52;101441.56;;;21.81;24.69
51999;BME280;38015;50.924;11.598;2023-02-12T05:32:23;101441.03;;;21.64;24.97
51999;BME280;38015;50.924;11.598;2023-02-12T05:34:53;101442.23;;;21.62;25.03
51999;BME280;38015;50.924;11.598;2023-02-12T05:37:23;101445.56;;;21.77;24.79
51999;BME280;38015;50.924;11.598;2023-02-12T05:39:54;101446.08;;;21.81;24.72
51999;BME280;38015;50.924;11.598;2023-02-12T05:42:25;101446.31;;;21.70;24.92
51999;BME280;38015;50.924;11.598;2023-02-12T05:44:55;101445.48;;;21.73;24.89
51999;BME280;38015;50.924;11.598;2023-02-12T05:47:26;101441.66;;;21.46;25.27
51999;BME280;38015;50.924;11.598;2023-02-12T05:49:57;101447.06;;;21.57;25.14
51999;BME280;38015;50.924;11.598;2023-02-12T05:52:29;101450.97;;;21.64;25.06
51999;BME280;38015;50.924;11.598;2023-02-12T05:54:57;101450.26;;;21.76;24.89
51999;BME280;38015;50.924;11.598;2023-02-12T05:57:28;101448.94;;;21.65;25.03
51999;BME280;38015;50.924;11.598;2023-02-12T05:59:58;101448.66;;;21.71;24.98
51999;BME280;38015;50.924;11.598;2023-02-12T06:02:29;101449.51;;;21.74;24.95
51999;BME280;38015;50.924;11.598;2023-02-12T06:04:59;101450.68;;;21.79;24.87
51999;BME280;38015;50.924;11.598;2023-02-12T06:07:30;101449.92;;;21.78;24.88
51999;BME280;38015;50.924;11.598;2023-02-12T06:10:00;101454.59;;;21.79;24.88
51999;BME280;38015;50.924;11.598;2023-02-12T06:12:31;101458.54;;;21.69;25.06
51999;BME280;38015;50.924;11.598;2023-02-12T06:15:01;101457.32;;;21.70;25.05
51999;BME280;38015;50.924;11.598;2023-02-12T06:17:33;101455.73;;;21.46;25.42
51999;BME280;38015;50.924;11.598;2023-02-12T06:20:03;101453.75;;;21.68;25.12
51999;BME280;38015;50.924;11.598;2023-02-12T06:22:33;101453.35;;;21.56;25.26
51999;BME280;38015;50.924;11.598;2023-02-12T06:25:04;101459.25;;;21.58;25.31
51999;BME280;38015;50.924;11.598;2023-02-12T06:27:34;101462.24;;;21.67;25.17
51999;BME280;38015;50.924;11.598;2023-02-12T06:30:05;101461.93;;;21.57;25.31
51999;BME280;38015;50.924;11.598;2023-02-12T06:32:35;101463.42;;;21.77;25.02
51999;BME280;38015;50.924;11.598;2023-02-12T06:35:06;101463.86;;;21.75;25.07
51999;BME280;38015;50.924;11.598;2023-02-12T06:37:36;101464.15;;;21.75;25.07
51999;BME280;38015;50.924;11.598;2023-02-12T06:40:07;101466.88;;;21.69;25.18
51999;BME280;38015;50.924;11.598;2023-02-12T06:42:37;101473.16;;;21.69;25.22
51999;BME280;38015;50.924;11.598;2023-02-12T06:45:09;101476.00;;;21.64;25.28
51999;BME280;38015;50.924;11.598;2023-02-12T06:47:38;101483.07;;;21.73;25.16
51999;BME280;38015;50.924;11.598;2023-02-12T06:50:09;101490.25;;;21.66;25.28
51999;BME280;38015;50.924;11.598;2023-02-12T06:52:40;101494.02;;;21.69;25.24
51999;BME280;38015;50.924;11.598;2023-02-12T06:55:09;101496.58;;;21.69;25.25
51999;BME280;38015;50.924;11.598;2023-02-12T06:57:40;101502.46;;;21.80;25.07
51999;BME280;38015;50.924;11.598;2023-02-12T07:00:11;101506.03;;;21.64;25.36
51999;BME280;38015;50.924;11.598;2023-02-12T07:02:41;101506.33;;;21.61;25.39
51999;BME280;38015;50.924;11.598;2023-02-12T07:05:11;101508.12;;;21.79;25.12
51999;BME280;38015;50.924;11.598;2023-02-12T07:07:42;101507.58;;;21.73;25.23
51999;BME280;38015;50.924;11.598;2023-02-12T07:10:12;101509.16;;;21.65;25.35
51999;BME280;38015;50.924;11.598;2023-02-12T07:12:44;101508.09;;;21.56;25.50
51999;BME280;38015;50.924;11.598;2023-02-12T07:15:14;101512.06;;;21.49;25.59
51999;BME280;38015;50.924;11.598;2023-02-12T07:17:44;101513.91;;;21.77;25.17
51999;BME280;38015;50.924;11.598;2023-02-12T07:20:15;101512.35;;;21.61;25.39
51999;BME280;38015;50.924;11.598;2023-02-12T07:22:45;101515.42;;;21.78;25.14
51999;BME280;38015;50.924;11.598;2023-02-12T07:25:16;101517.59;;;21.70;25.28
51999;BME280;38015;50.924;11.598;2023-02-12T07:27:46;101522.25;;;21.63;25.37
51999;BME280;38015;50.924;11.598;2023-02-12T07:30:17;101522.13;;;21.56;25.49
51999;BME280;38015;50.924;11.598;2023-02-12T07:32:47;101526.09;;;21.57;25.50
51999;BME280;38015;50.924;11.598;2023-02-12T07:35:18;101528.81;;;21.64;25.38
51999;BME280;38015;50.924;11.598;2023-02-12T07:37:48;101532.84;;;21.72;25.25
51999;BME280;38015;50.924;11.598;2023-02-12T07:40:19;101535.40;;;21.65;25.37
51999;BME280;38015;50.924;11.598;2023-02-12T07:42:54;101537.67;;;21.69;25.33
51999;BME280;38015;50.924;11.598;2023-02-12T07:45:20;101536.92;;;21.57;25.50
51999;BME280;38015;50.924;11.598;2023-02-12T07:47:50;101540.86;;;21.65;25.40
51999;BME280;38015;50.924;11.598;2023-02-12T07:50:22;101543.76;;;21.77;25.19
51999;BME280;38015;50.924;11.598;2023-02-12T07:52:51;101545.36;;;21.71;25.29
51999;BME280;38015;50.924;11.598;2023-02-12T07:55:22;101544.78;;;21.64;25.38
51999;BME280;38015;50.924;11.598;2023-02-12T07:57:52;101547.06;;;21.70;25.31
51999;BME280;38015;50.924;11.598;2023-02-12T08:00:23;101548.43;;;21.77;25.20
51999;BME280;38015;50.924;11.598;2023-02-12T08:02:53;101545.75;;;21.78;25.18
51999;BME280;38015;50.924;11.598;2023-02-12T08:05:24;101544.59;;;21.73;25.25
51999;BME280;38015;50.924;11.598;2023-02-12T08:07:56;101542.98;;;21.79;25.17
51999;BME280;38015;50.924;11.598;2023-02-12T08:10:25;101538.19;;;21.66;25.37
51999;BME280;38015;50.924;11.598;2023-02-12T08:12:55;101539.30;;;21.80;25.16
51999;BME280;38015;50.924;11.598;2023-02-12T08:15:26;101541.70;;;21.72;25.31
51999;BME280;38015;50.924;11.598;2023-02-12T08:17:56;101543.96;;;21.44;25.73
51999;BME280;38015;50.924;11.598;2023-02-12T08:20:27;101549.23;;;21.69;25.35
51999;BME280;38015;50.924;11.598;2023-02-12T08:22:57;101550.96;;;21.73;25.30
51999;BME280;38015;50.924;11.598;2023-02-12T08:25:28;101556.41;;;21.77;25.23
51999;BME280;38015;50.924;11.598;2023-02-12T08:28:00;101556.94;;;21.38;25.80
51999;BME280;38015;50.924;11.598;2023-02-12T08:30:29;101558.40;;;21.75;25.29
51999;BME280;38015;50.924;11.598;2023-02-12T08:32:59;101557.85;;;21.61;25.48
51999;BME280;38015;50.924;11.598;2023-02-12T08:35:30;101559.85;;;21.49;25.67
51999;BME280;38015;50.924;11.598;2023-02-12T08:38:00;101557.76;;;21.72;25.34
51999;BME280;38015;50.924;11.598;2023-02-12T08:40:32;101559.99;;;21.71;25.32
51999;BME280;38015;50.924;11.598;2023-02-12T08:43:01;101556.63;;;21.69;25.38
51999;BME280;38015;50.924;11.598;2023-02-12T08:45:32;101558.39;;;21.75;25.32
51999;BME280;38015;50.924;11.598;2023-02-12T08:48:03;101558.03;;;21.67;25.43
51999;BME280;38015;50.924;11.598;2023-02-12T08:50:33;101560.52;;;21.62;25.54
51999;BME280;38015;50.924;11.598;2023-02-12T08:53:05;101563.92;;;21.64;25.49
51999;BME280;38015;50.924;11.598;2023-02-12T08:55:34;101567.20;;;21.77;25.30
51999;BME280;38015;50.924;11.598;2023-02-12T08:58:04;101571.88;;;21.82;25.23
51999;BME280;38015;50.924;11.598;2023-02-12T09:00:37;101570.69;;;21.69;25.44
51999;BME280;38015;50.924;11.598;2023-02-12T09:03:05;101576.61;;;21.79;25.29
51999;BME280;38015;50.924;11.598;2023-02-12T09:05:38;101578.57;;;21.81;25.28
51999;BME280;38015;50.924;11.598;2023-02-12T09:08:07;101581.24;;;21.64;25.57
51999;BME280;38015;50.924;11.598;2023-02-12T09:10:38;101579.65;;;21.77;25.35
51999;BME280;38015;50.924;11.598;2023-02-12T09:13:08;101579.10;;;21.80;25.31
51999;BME280;38015;50.924;11.598;2023-02-12T09:15:40;101578.31;;;21.71;25.46
51999;BME280;38015;50.924;11.598;2023-02-12T09:18:12;101578.83;;;21.68;25.49
51999;BME280;38015;50.924;11.598;2023-02-12T09:20:41;101578.03;;;21.78;25.35
51999;BME280;38015;50.924;11.598;2023-02-12T09:23:12;101582.00;;;21.55;25.66
51999;BME280;38015;50.924;11.598;2023-02-12T09:25:41;101585.73;;;21.77;25.35
51999;BME280;38015;50.924;11.598;2023-02-12T09:28:12;101587.23;;;21.53;25.69
51999;BME280;38015;50.924;11.598;2023-02-12T09:30:41;101586.56;;;21.74;25.41
51999;BME280;38015;50.924;11.598;2023-02-12T09:33:12;101591.46;;;21.71;25.43
51999;BME280;38015;50.924;11.598;2023-02-12T09:35:43;101597.37;;;21.69;25.47
51999;BME280;38015;50.924;11.598;2023-02-12T09:38:13;101599.15;;;21.79;25.29
51999;BME280;38015;50.924;11.598;2023-02-12T09:41:00;101600.53;;;21.51;25.69
51999;BME280;38015;50.924;11.598;2023-02-12T09:43:17;101607.41;;;21.63;25.54
51999;BME280;38015;50.924;11.598;2023-02-12T09:45:50;101609.77;;;21.47;25.78
51999;BME280;38015;50.924;11.598;2023-02-12T09:50:50;101612.25;;;21.36;25.95
51999;BME280;38015;50.924;11.598;2023-02-12T09:53:18;101612.57;;;21.47;25.80
51999;BME280;38015;50.924;11.598;2023-02-12T09:55:46;101618.27;;;21.36;26.03
51999;BME280;38015;50.924;11.598;2023-02-12T09:58:23;101620.81;;;21.37;25.94
51999;BME280;38015;50.924;11.598;2023-02-12T10:00:47;101623.80;;;21.30;26.07
51999;BME280;38015;50.924;11.598;2023-02-12T10:03:18;101623.19;;;21.46;25.81
51999;BME280;38015;50.924;11.598;2023-02-12T10:05:54;101621.99;;;21.49;25.76
51999;BME280;38015;50.924;11.598;2023-02-12T10:08:33;101622.43;;;21.65;25.52
51999;BME280;38015;50.924;11.598;2023-02-12T10:10:52;101626.75;;;21.67;25.49
51999;BME280;38015;50.924;11.598;2023-02-12T10:13:32;101627.92;;;21.64;25.53
51999;BME280;38015;50.924;11.598;2023-02-12T10:15:55;101630.22;;;21.60;25.59
51999;BME280;38015;50.924;11.598;2023-02-12T10:20:57;101636.61;;;21.79;25.30
51999;BME280;38015;50.924;11.598;2023-02-12T10:23:34;101637.32;;;21.68;25.48
51999;BME280;38015;50.924;11.598;2023-02-12T10:25:54;101637.94;;;21.69;25.46
51999;BME280;38015;50.924;11.598;2023-02-12T10:28:25;101640.58;;;21.66;25.51
51999;BME280;38015;50.924;11.598;2023-02-12T10:30:56;101637.10;;;21.62;25.54
51999;BME280;38015;50.924;11.598;2023-02-12T10:33:26;101636.12;;;21.79;25.31
51999;BME280;38015;50.924;11.598;2023-02-12T10:36:00;101634.20;;;21.74;25.37
51999;BME280;38015;50.924;11.598;2023-02-12T10:38:28;101634.11;;;21.75;25.35
51999;BME280;38015;50.924;11.598;2023-02-12T10:40:57;101631.39;;;21.74;25.37
51999;BME280;38015;50.924;11.598;2023-02-12T10:43:28;101633.40;;;21.59;25.61
51999;BME280;38015;50.924;11.598;2023-02-12T10:45:57;101635.04;;;21.48;25.79
51999;BME280;38015;50.924;11.598;2023-02-12T10:48:31;101638.19;;;21.56;25.69
51999;BME280;38015;50.924;11.598;2023-02-12T10:51:08;101636.97;;;21.66;25.52
51999;BME280;38015;50.924;11.598;2023-02-12T10:53:31;101636.27;;;21.76;25.37
51999;BME280;38015;50.924;11.598;2023-02-12T10:58:29;101631.95;;;21.74;25.39
51999;BME280;38015;50.924;11.598;2023-02-12T11:01:00;101627.69;;;21.70;25.48
51999;BME280;38015;50.924;11.598;2023-02-12T11:03:31;101627.69;;;21.72;25.44
51999;BME280;38015;50.924;11.598;2023-02-12T11:06:11;101623.66;;;21.73;25.42
51999;BME280;38015;50.924;11.598;2023-02-12T11:08:33;101621.90;;;21.82;25.28
51999;BME280;38015;50.924;11.598;2023-02-12T11:11:04;101620.85;;;21.78;25.35
51999;BME280;38015;50.924;11.598;2023-02-12T11:13:33;101616.95;;;21.89;25.19
51999;BME280;38015;50.924;11.598;2023-02-12T11:16:03;101608.85;;;21.88;25.20
51999;BME280;38015;50.924;11.598;2023-02-12T11:18:33;101609.76;;;21.77;25.37
51999;BME280;38015;50.924;11.598;2023-02-12T11:21:05;101607.63;;;21.56;25.71
51999;BME280;38015;50.924;11.598;2023-02-12T11:23:35;101609.22;;;21.59;25.66
51999;BME280;38015;50.924;11.598;2023-02-12T11:28:35;101603.86;;;21.60;25.69
51999;BME280;38015;50.924;11.598;2023-02-12T11:33:36;101599.28;;;21.67;25.57
51999;BME280;38015;50.924;11.598;2023-02-12T11:36:12;101598.46;;;21.52;25.78
51999;BME280;38015;50.924;11.598;2023-02-12T11:38:39;101598.76;;;21.51;25.81
51999;BME280;38015;50.924;11.598;2023-02-12T11:43:38;101596.99;;;21.78;25.40
51999;BME280;38015;50.924;11.598;2023-02-12T11:46:17;101592.98;;;21.77;25.42
51999;BME280;38015;50.924;11.598;2023-02-12T11:48:44;101590.88;;;21.85;25.28
51999;BME280;38015;50.924;11.598;2023-02-12T11:51:17;101590.72;;;21.83;25.35
51999;BME280;38015;50.924;11.598;2023-02-12T11:53:42;101587.62;;;21.82;25.39
51999;BME280;38015;50.924;11.598;2023-02-12T11:56:12;101586.88;;;21.74;25.52
51999;BME280;38015;50.924;11.598;2023-02-12T11:58:41;101585.08;;;21.81;25.40
51999;BME280;38015;50.924;11.598;2023-02-12T12:01:16;101586.64;;;21.71;25.58
51999;BME280;38015;50.924;11.598;2023-02-12T12:03:52;101585.08;;;21.75;25.53
51999;BME280;38015;50.924;11.598;2023-02-12T12:06:23;101584.69;;;21.77;25.50
51999;BME280;38015;50.924;11.598;2023-02-12T12:08:47;101586.98;;;21.88;25.35
51999;BME280;38015;50.924;11.598;2023-02-12T12:11:18;101587.55;;;21.88;25.34
51999;BME280;38015;50.924;11.598;2023-02-12T12:13:52;101584.48;;;21.79;25.49
51999;BME280;38015;50.924;11.598;2023-02-12T12:16:23;101585.44;;;21.80;25.48
51999;BME280;38015;50.924;11.598;2023-02-12T12:18:47;101586.98;;;21.84;25.41
51999;BME280;38015;50.924;11.598;2023-02-12T12:21:22;101591.82;;;21.88;25.35
51999;BME280;38015;50.924;11.598;2023-02-12T12:23:50;101588.79;;;21.89;25.33
51999;BME280;38015;50.924;11.598;2023-02-12T12:26:23;101588.29;;;21.82;25.44
51999;BME280;38015;50.924;11.598;2023-02-12T12:28:52;101590.13;;;21.85;25.41
51999;BME280;38015;50.924;11.598;2023-02-12T12:31:22;101588.83;;;21.83;25.43
51999;BME280;38015;50.924;11.598;2023-02-12T12:33:50;101590.94;;;21.76;25.55
51999;BME280;38015;50.924;11.598;2023-02-12T12:38:56;101587.71;;;21.82;25.50
51999;BME280;38015;50.924;11.598;2023-02-12T12:41:29;101588.75;;;21.84;25.46
51999;BME280;38015;50.924;11.598;2023-02-12T12:44:02;101587.54;;;21.75;25.59
51999;BME280;38015;50.924;11.598;2023-02-12T12:46:31;101583.87;;;21.74;25.61
51999;BME280;38015;50.924;11.598;2023-02-12T12:51:36;101574.54;;;21.78;25.58
51999;BME280;38015;50.924;11.598;2023-02-12T12:54:05;101572.37;;;21.86;25.45
51999;BME280;38015;50.924;11.598;2023-02-12T12:56:36;101575.04;;;21.86;25.45
51999;BME280;38015;50.924;11.598;2023-02-12T12:59:08;101574.50;;;21.83;25.51
51999;BME280;38015;50.924;11.598;2023-02-12T13:09:07;101571.35;;;21.83;25.50
51999;BME280;38015;50.924;11.598;2023-02-12T13:11:35;101570.90;;;21.70;25.70
51999;BME280;38015;50.924;11.598;2023-02-12T13:14:05;101570.93;;;21.58;25.92
51999;BME280;38015;50.924;11.598;2023-02-12T13:16:29;101570.34;;;21.73;25.67
51999;BME280;38015;50.924;11.598;2023-02-12T13:19:04;101565.50;;;21.52;25.97
51999;BME280;38015;50.924;11.598;2023-02-12T13:21:37;101564.35;;;21.73;25.68
51999;BME280;38015;50.924;11.598;2023-02-12T13:24:04;101558.46;;;21.72;25.67
51999;BME280;38015;50.924;11.598;2023-02-12T13:26:36;101555.70;;;21.63;25.80
51999;BME280;38015;50.924;11.598;2023-02-12T13:29:07;101553.72;;;21.73;25.63
51999;BME280;38015;50.924;11.598;2023-02-12T13:31:34;101551.40;;;21.60;25.82
51999;BME280;38015;50.924;11.598;2023-02-12T13:34:03;101552.85;;;21.76;25.59
51999;BME280;38015;50.924;11.598;2023-02-12T13:36:32;101555.17;;;21.78;25.55